createdAt,value
2019-02-16T00:00:45.564Z,0.00
2019-02-16T00:01:45.543Z,0.00
2019-02-16T00:02:45.518Z,0.00
2019-02-16T00:03:45.492Z,0.00
2019-02-16T00:04:45.468Z,0.00
2019-02-16T00:05:45.445Z,0.00
2019-02-16T00:06:45.444Z,0.00
2019-02-16T00:07:45.396Z,0.00
2019-02-16T00:08:45.373Z,0.00
2019-02-16T00:09:45.351Z,0.00
2019-02-16T00:10:45.327Z,0.00
2019-02-16T00:11:45.321Z,0.00
2019-02-16T00:12:45.321Z,0.00
2019-02-16T00:13:45.255Z,0.00
2019-02-16T00:14:45.230Z,0.00
2019-02-16T00:15:45.208Z,0.00
2019-02-16T00:16:45.183Z,0.00
2019-02-16T00:17:45.157Z,0.00
2019-02-16T00:18:45.163Z,0.00
2019-02-16T00:19:45.189Z,0.00
2019-02-16T00:20:45.134Z,0.00
2019-02-16T00:21:45.080Z,0.00
2019-02-16T00:22:45.055Z,0.00
2019-02-16T00:23:45.071Z,0.00
2019-02-16T00:24:45.033Z,0.00
2019-02-16T00:25:45.019Z,0.00
2019-02-16T00:26:44.987Z,0.00
2019-02-16T00:27:44.982Z,0.00
2019-02-16T00:28:44.942Z,0.00
2019-02-16T00:29:44.927Z,0.00
2019-02-16T00:30:44.865Z,0.00
2019-02-16T00:31:44.856Z,0.00
2019-02-16T00:32:44.843Z,0.00
2019-02-16T00:33:44.773Z,0.00
2019-02-16T00:34:44.752Z,0.00
2019-02-16T00:35:44.724Z,0.00
2019-02-16T00:36:44.699Z,0.00
2019-02-16T00:37:44.676Z,0.00
2019-02-16T00:38:44.651Z,0.00
2019-02-16T00:39:44.629Z,0.00
2019-02-16T00:40:44.618Z,0.00
2019-02-16T00:41:44.579Z,0.00
2019-02-16T00:42:44.560Z,0.00
2019-02-16T00:43:44.532Z,0.00
2019-02-16T00:44:44.510Z,0.00
2019-02-16T00:45:44.484Z,0.00
2019-02-16T00:46:44.529Z,0.00
2019-02-16T00:47:44.430Z,0.00
2019-02-16T00:48:44.407Z,0.00
2019-02-16T00:49:44.415Z,0.00
2019-02-16T00:50:44.359Z,0.00
2019-02-16T00:51:44.366Z,0.00
2019-02-16T00:52:44.333Z,0.00
2019-02-16T00:53:44.291Z,0.00
2019-02-16T00:54:44.262Z,0.00
2019-02-16T00:55:44.235Z,0.00
2019-02-16T00:56:44.219Z,0.00
2019-02-16T00:57:44.189Z,0.00
2019-02-16T00:58:44.163Z,0.00
2019-02-16T00:59:44.138Z,0.00
2019-02-16T01:00:44.113Z,0.00
2019-02-16T01:01:44.118Z,0.00
2019-02-16T01:02:44.120Z,0.00
2019-02-16T01:03:44.039Z,0.00
2019-02-16T01:04:44.034Z,0.00
2019-02-16T01:05:43.991Z,0.00
2019-02-16T01:06:43.966Z,0.00
2019-02-16T01:07:43.957Z,0.00
2019-02-16T01:08:43.916Z,0.00
2019-02-16T01:09:43.894Z,0.00
2019-02-16T01:10:43.868Z,0.00
2019-02-16T01:11:43.848Z,0.00
2019-02-16T01:12:43.818Z,0.00
2019-02-16T01:13:43.792Z,0.00
2019-02-16T01:14:43.771Z,0.00
2019-02-16T01:15:43.756Z,0.00
2019-02-16T01:16:43.761Z,0.00
2019-02-16T01:17:43.753Z,0.00
2019-02-16T01:18:43.722Z,0.00
2019-02-16T01:19:43.729Z,0.00
2019-02-16T01:20:43.645Z,0.00
2019-02-16T01:21:43.639Z,0.00
2019-02-16T01:22:43.571Z,0.00
2019-02-16T01:23:43.606Z,0.00
2019-02-16T01:24:43.560Z,0.00
2019-02-16T01:25:43.542Z,0.00
2019-02-16T01:26:43.568Z,0.00
2019-02-16T01:27:43.490Z,0.00
2019-02-16T01:28:43.456Z,0.00
2019-02-16T01:29:43.474Z,0.00
2019-02-16T01:30:43.430Z,0.00
2019-02-16T01:31:43.348Z,0.00
2019-02-16T01:32:43.321Z,0.00
2019-02-16T01:33:45.458Z,0.00
2019-02-16T01:34:43.294Z,0.00
2019-02-16T01:35:43.248Z,0.00
2019-02-16T01:36:43.221Z,0.00
2019-02-16T01:37:43.197Z,0.00
2019-02-16T01:38:43.172Z,0.00
2019-02-16T01:39:43.145Z,0.00
2019-02-16T01:40:43.127Z,0.00
2019-02-16T01:41:43.095Z,0.00
2019-02-16T01:42:43.071Z,0.00
2019-02-16T01:43:43.046Z,0.00
2019-02-16T01:44:43.022Z,0.00
2019-02-16T01:45:42.997Z,0.00
2019-02-16T01:46:42.971Z,0.00
2019-02-16T01:47:42.969Z,0.00
2019-02-16T01:48:42.921Z,0.00
2019-02-16T01:49:42.897Z,0.00
2019-02-16T01:50:42.870Z,0.00
2019-02-16T01:51:42.848Z,0.00
2019-02-16T01:52:42.819Z,0.00
2019-02-16T01:53:42.796Z,0.00
2019-02-16T01:54:42.772Z,0.00
2019-02-16T01:55:42.745Z,0.00
2019-02-16T01:56:42.768Z,0.00
2019-02-16T01:57:42.694Z,0.00
2019-02-16T01:58:42.671Z,0.00
2019-02-16T01:59:42.655Z,0.00
2019-02-16T02:00:42.674Z,0.00
2019-02-16T02:01:42.624Z,0.00
2019-02-16T02:02:42.608Z,0.00
2019-02-16T02:03:42.612Z,0.00
2019-02-16T02:04:42.550Z,0.00
2019-02-16T02:05:42.524Z,0.00
2019-02-16T02:06:42.542Z,0.00
2019-02-16T02:07:42.457Z,0.00
2019-02-16T02:08:42.419Z,0.00
2019-02-16T02:09:42.447Z,0.00
2019-02-16T02:10:42.429Z,0.00
2019-02-16T02:11:42.351Z,0.00
2019-02-16T02:12:42.334Z,0.00
2019-02-16T02:13:42.317Z,0.00
2019-02-16T02:14:42.293Z,0.00
2019-02-16T02:15:42.293Z,0.00
2019-02-16T02:16:42.272Z,0.00
2019-02-16T02:17:42.212Z,0.00
2019-02-16T02:18:42.164Z,0.00
2019-02-16T02:19:42.143Z,0.00
2019-02-16T02:20:42.116Z,0.00
2019-02-16T02:21:42.089Z,0.00
2019-02-16T02:22:42.073Z,0.00
2019-02-16T02:23:42.036Z,0.00
2019-02-16T02:24:42.014Z,0.00
2019-02-16T02:25:41.988Z,0.00
2019-02-16T02:26:41.960Z,0.00
2019-02-16T02:27:41.934Z,0.00
2019-02-16T02:28:41.908Z,0.00
2019-02-16T02:29:41.883Z,0.00
2019-02-16T02:30:41.868Z,0.00
2019-02-16T02:31:41.836Z,0.00
2019-02-16T02:32:41.806Z,0.00
2019-02-16T02:33:41.783Z,0.00
2019-02-16T02:34:41.756Z,0.00
2019-02-16T02:35:41.729Z,0.00
2019-02-16T02:36:41.705Z,0.00
2019-02-16T02:37:41.677Z,0.00
2019-02-16T02:38:41.654Z,0.00
2019-02-16T02:39:41.629Z,0.00
2019-02-16T02:40:41.663Z,0.00
2019-02-16T02:41:41.611Z,0.00
2019-02-16T02:42:41.550Z,0.00
2019-02-16T02:43:41.530Z,0.00
2019-02-16T02:44:41.512Z,0.00
2019-02-16T02:45:41.474Z,0.00
2019-02-16T02:46:41.447Z,0.00
2019-02-16T02:47:41.442Z,0.00
2019-02-16T02:48:41.396Z,0.00
2019-02-16T02:49:41.456Z,0.00
2019-02-16T02:50:41.365Z,0.00
2019-02-16T02:51:51.502Z,0.00
2019-02-16T02:52:41.292Z,0.00
2019-02-16T02:53:41.278Z,0.00
2019-02-16T02:54:41.241Z,0.00
2019-02-16T02:55:41.217Z,0.00
2019-02-16T02:56:41.216Z,0.00
2019-02-16T02:57:41.165Z,0.00
2019-02-16T02:58:41.176Z,0.00
2019-02-16T02:59:41.112Z,0.00
2019-02-16T03:00:41.106Z,0.00
2019-02-16T03:01:41.064Z,0.00
2019-02-16T03:02:41.034Z,0.00
2019-02-16T03:03:41.008Z,0.00
2019-02-16T03:04:40.984Z,0.00
2019-02-16T03:05:40.958Z,0.00
2019-02-16T03:06:40.932Z,0.00
2019-02-16T03:07:40.918Z,0.00
2019-02-16T03:08:40.881Z,0.00
2019-02-16T03:09:40.854Z,0.00
2019-02-16T03:10:40.827Z,0.00
2019-02-16T03:11:40.805Z,0.00
2019-02-16T03:12:40.780Z,0.00
2019-02-16T03:13:40.759Z,0.00
2019-02-16T03:14:40.726Z,0.00
2019-02-16T03:15:40.710Z,0.00
2019-02-16T03:16:40.685Z,0.00
2019-02-16T03:17:40.646Z,0.00
2019-02-16T03:18:40.621Z,0.00
2019-02-16T03:19:40.599Z,0.00
2019-02-16T03:20:40.567Z,0.00
2019-02-16T03:21:40.544Z,0.00
2019-02-16T03:22:40.516Z,0.00
2019-02-16T03:23:40.494Z,0.00
2019-02-16T03:24:40.466Z,0.00
2019-02-16T03:25:40.438Z,0.00
2019-02-16T03:26:40.415Z,0.00
2019-02-16T03:27:40.387Z,0.00
2019-02-16T03:28:40.363Z,0.00
2019-02-16T03:29:40.335Z,0.00
2019-02-16T03:30:40.325Z,0.00
2019-02-16T03:31:40.314Z,0.00
2019-02-16T03:32:40.309Z,0.00
2019-02-16T03:33:40.234Z,0.00
2019-02-16T03:34:40.268Z,0.00
2019-02-16T03:35:40.184Z,0.00
2019-02-16T03:36:40.152Z,0.00
2019-02-16T03:37:40.132Z,0.00
2019-02-16T03:38:40.105Z,0.00
2019-02-16T03:39:40.085Z,0.00
2019-02-16T03:40:40.050Z,0.00
2019-02-16T03:41:40.024Z,0.00
2019-02-16T03:42:39.997Z,0.00
2019-02-16T03:43:39.979Z,0.00
2019-02-16T03:44:39.944Z,0.00
2019-02-16T03:45:39.922Z,0.00
2019-02-16T03:46:39.893Z,0.00
2019-02-16T03:47:39.867Z,0.00
2019-02-16T03:48:39.839Z,0.00
2019-02-16T03:49:39.814Z,0.00
2019-02-16T03:50:39.788Z,0.00
2019-02-16T03:51:39.762Z,0.00
2019-02-16T03:52:39.737Z,0.00
2019-02-16T03:53:39.713Z,0.00
2019-02-16T03:54:39.687Z,0.00
2019-02-16T03:55:39.662Z,0.00
2019-02-16T03:56:39.635Z,0.00
2019-02-16T03:57:39.604Z,0.00
2019-02-16T03:58:39.578Z,0.00
2019-02-16T03:59:39.563Z,0.00
2019-02-16T04:00:39.531Z,0.00
2019-02-16T04:01:39.500Z,0.00
2019-02-16T04:02:39.478Z,0.00
2019-02-16T04:03:39.450Z,0.00
2019-02-16T04:04:39.422Z,0.00
2019-02-16T04:05:39.395Z,0.00
2019-02-16T04:06:39.370Z,0.00
2019-02-16T04:07:39.350Z,0.00
2019-02-16T04:08:39.317Z,0.00
2019-02-16T04:09:39.293Z,0.00
2019-02-16T04:10:39.265Z,0.00
2019-02-16T04:11:39.245Z,0.00
2019-02-16T04:12:39.213Z,0.00
2019-02-16T04:13:39.185Z,0.00
2019-02-16T04:14:39.161Z,0.00
2019-02-16T04:15:39.136Z,0.00
2019-02-16T04:16:39.113Z,0.00
2019-02-16T04:17:39.087Z,0.00
2019-02-16T04:18:39.056Z,0.00
2019-02-16T04:19:39.027Z,0.00
2019-02-16T04:20:39.007Z,0.00
2019-02-16T04:21:38.991Z,0.00
2019-02-16T04:22:38.951Z,0.00
2019-02-16T04:23:38.924Z,0.00
2019-02-16T04:24:38.899Z,0.00
2019-02-16T04:25:38.881Z,0.00
2019-02-16T04:26:40.559Z,0.00
2019-02-16T04:27:38.845Z,0.00
2019-02-16T04:28:38.794Z,0.00
2019-02-16T04:29:38.765Z,0.00
2019-02-16T04:30:38.747Z,0.00
2019-02-16T04:31:38.712Z,0.00
2019-02-16T04:32:38.687Z,0.00
2019-02-16T04:33:38.658Z,0.00
2019-02-16T04:34:38.633Z,0.00
2019-02-16T04:35:38.606Z,0.00
2019-02-16T04:36:38.580Z,0.00
2019-02-16T04:37:38.554Z,0.00
2019-02-16T04:38:38.529Z,0.00
2019-02-16T04:39:38.500Z,0.00
2019-02-16T04:40:38.474Z,0.00
2019-02-16T04:41:38.448Z,0.00
2019-02-16T04:42:38.421Z,0.00
2019-02-16T04:43:38.473Z,0.00
2019-02-16T04:44:38.369Z,0.00
2019-02-16T04:45:38.347Z,0.00
2019-02-16T04:46:38.315Z,0.00
2019-02-16T04:47:38.288Z,0.00
2019-02-16T04:48:38.262Z,0.00
2019-02-16T04:49:38.237Z,0.00
2019-02-16T04:50:38.212Z,0.00
2019-02-16T04:51:38.181Z,0.00
2019-02-16T04:52:38.156Z,0.00
2019-02-16T04:53:38.133Z,0.00
2019-02-16T04:54:40.296Z,0.00
2019-02-16T04:55:38.076Z,0.00
2019-02-16T04:56:38.056Z,0.00
2019-02-16T04:57:38.035Z,0.00
2019-02-16T04:58:37.997Z,0.00
2019-02-16T04:59:37.970Z,0.00
2019-02-16T05:00:37.948Z,0.00
2019-02-16T05:01:37.922Z,0.00
2019-02-16T05:02:37.893Z,0.00
2019-02-16T05:03:37.879Z,0.00
2019-02-16T05:04:37.838Z,0.00
2019-02-16T05:05:37.814Z,0.00
2019-02-16T05:06:37.784Z,0.00
2019-02-16T05:07:37.758Z,0.00
2019-02-16T05:08:37.731Z,0.00
2019-02-16T05:09:37.704Z,0.00
2019-02-16T05:10:37.683Z,0.00
2019-02-16T05:11:37.669Z,0.00
2019-02-16T05:12:37.624Z,0.00
2019-02-16T05:13:37.598Z,0.00
2019-02-16T05:14:37.581Z,0.00
2019-02-16T05:15:37.544Z,0.00
2019-02-16T05:16:37.521Z,0.00
2019-02-16T05:17:37.492Z,0.00
2019-02-16T05:18:37.485Z,0.00
2019-02-16T05:19:37.437Z,0.00
2019-02-16T05:20:37.413Z,0.00
2019-02-16T05:21:37.386Z,0.00
2019-02-16T05:22:44.403Z,0.00
2019-02-16T05:23:37.331Z,0.00
2019-02-16T05:24:37.349Z,0.00
2019-02-16T05:25:37.289Z,0.00
2019-02-16T05:26:37.254Z,0.00
2019-02-16T05:27:37.227Z,0.00
2019-02-16T05:28:37.199Z,0.00
2019-02-16T05:29:37.172Z,0.00
2019-02-16T05:30:37.148Z,0.00
2019-02-16T05:31:37.123Z,0.00
2019-02-16T05:32:37.112Z,0.00
2019-02-16T05:33:37.065Z,0.00
2019-02-16T05:34:37.042Z,0.00
2019-02-16T05:35:37.011Z,0.00
2019-02-16T05:36:36.990Z,0.00
2019-02-16T05:37:36.960Z,0.00
2019-02-16T05:38:36.940Z,0.00
2019-02-16T05:39:36.907Z,0.00
2019-02-16T05:40:36.878Z,0.00
2019-02-16T05:41:36.861Z,0.00
2019-02-16T05:42:36.860Z,0.00
2019-02-16T05:43:36.798Z,0.00
2019-02-16T05:44:36.778Z,0.00
2019-02-16T05:45:36.757Z,0.00
2019-02-16T05:46:36.720Z,0.00
2019-02-16T05:47:36.698Z,0.00
2019-02-16T05:48:36.667Z,0.00
2019-02-16T05:49:36.638Z,0.00
2019-02-16T05:50:36.614Z,0.00
2019-02-16T05:51:36.584Z,0.00
2019-02-16T05:52:36.559Z,0.00
2019-02-16T05:53:36.532Z,0.00
2019-02-16T05:54:36.506Z,0.00
2019-02-16T05:55:36.477Z,0.00
2019-02-16T05:56:36.451Z,0.00
2019-02-16T05:57:36.424Z,0.00
2019-02-16T05:58:36.408Z,0.00
2019-02-16T05:59:36.371Z,0.00
2019-02-16T06:00:36.349Z,0.00
2019-02-16T06:01:36.327Z,0.00
2019-02-16T06:02:36.291Z,0.00
2019-02-16T06:03:36.266Z,0.00
2019-02-16T06:04:36.240Z,0.00
2019-02-16T06:05:36.210Z,0.00
2019-02-16T06:06:36.184Z,0.00
2019-02-16T06:07:36.164Z,0.00
2019-02-16T06:08:36.133Z,0.00
2019-02-16T06:09:36.109Z,0.00
2019-02-16T06:10:36.079Z,0.00
2019-02-16T06:11:36.052Z,0.00
2019-02-16T06:12:36.046Z,0.00
2019-02-16T06:13:36.001Z,0.00
2019-02-16T06:14:35.970Z,0.00
2019-02-16T06:15:35.946Z,0.00
2019-02-16T06:16:35.921Z,0.00
2019-02-16T06:17:35.888Z,0.00
2019-02-16T06:18:35.862Z,0.00
2019-02-16T06:19:35.839Z,0.00
2019-02-16T06:20:35.807Z,0.00
2019-02-16T06:21:35.782Z,0.00
2019-02-16T06:22:35.755Z,0.00
2019-02-16T06:23:35.727Z,0.00
2019-02-16T06:24:35.711Z,0.00
2019-02-16T06:25:35.673Z,0.00
2019-02-16T06:26:35.647Z,0.00
2019-02-16T06:27:35.619Z,0.00
2019-02-16T06:28:35.738Z,0.00
2019-02-16T06:29:35.567Z,0.00
2019-02-16T06:30:35.547Z,0.00
2019-02-16T06:31:35.512Z,0.00
2019-02-16T06:32:35.504Z,0.00
2019-02-16T06:33:35.464Z,0.00
2019-02-16T06:34:35.433Z,0.00
2019-02-16T06:35:35.406Z,0.00
2019-02-16T06:36:35.385Z,0.00
2019-02-16T06:37:35.352Z,0.00
2019-02-16T06:38:35.331Z,0.00
2019-02-16T06:39:35.298Z,0.00
2019-02-16T06:40:35.270Z,0.00
2019-02-16T06:41:35.243Z,0.00
2019-02-16T06:42:35.217Z,0.00
2019-02-16T06:43:35.188Z,0.00
2019-02-16T06:44:35.165Z,0.00
2019-02-16T06:45:35.135Z,0.00
2019-02-16T06:46:35.110Z,0.00
2019-02-16T06:47:35.093Z,0.00
2019-02-16T06:48:35.054Z,0.00
2019-02-16T06:49:35.032Z,0.00
2019-02-16T06:50:37.038Z,0.00
2019-02-16T06:51:34.972Z,0.00
2019-02-16T06:52:34.945Z,0.00
2019-02-16T06:53:34.918Z,0.00
2019-02-16T06:54:34.891Z,0.00
2019-02-16T06:55:34.872Z,5.63
2019-02-16T06:56:34.856Z,5.63
2019-02-16T06:57:34.828Z,5.63
2019-02-16T06:58:34.786Z,5.63
2019-02-16T06:59:34.756Z,5.63
2019-02-16T07:00:34.729Z,5.63
2019-02-16T07:01:34.703Z,5.63
2019-02-16T07:02:34.684Z,5.63
2019-02-16T07:03:34.648Z,5.63
2019-02-16T07:04:34.622Z,5.63
2019-02-16T07:05:34.594Z,5.63
2019-02-16T07:06:34.646Z,5.63
2019-02-16T07:07:34.549Z,5.63
2019-02-16T07:08:34.514Z,5.63
2019-02-16T07:09:34.487Z,5.63
2019-02-16T07:10:34.460Z,5.63
2019-02-16T07:11:34.432Z,5.63
2019-02-16T07:12:34.406Z,5.63
2019-02-16T07:13:34.380Z,5.63
2019-02-16T07:14:34.356Z,11.25
2019-02-16T07:15:34.322Z,11.25
2019-02-16T07:16:34.297Z,11.25
2019-02-16T07:17:34.277Z,11.25
2019-02-16T07:18:34.244Z,11.25
2019-02-16T07:19:34.228Z,11.25
2019-02-16T07:20:34.190Z,11.25
2019-02-16T07:21:34.161Z,11.25
2019-02-16T07:22:34.136Z,11.25
2019-02-16T07:23:34.110Z,11.25
2019-02-16T07:24:34.082Z,11.25
2019-02-16T07:25:34.058Z,11.25
2019-02-16T07:26:34.074Z,11.25
2019-02-16T07:27:34.000Z,11.25
2019-02-16T07:28:33.987Z,11.25
2019-02-16T07:29:33.948Z,11.25
2019-02-16T07:30:33.920Z,11.25
2019-02-16T07:31:33.906Z,16.88
2019-02-16T07:32:33.866Z,16.88
2019-02-16T07:33:33.838Z,16.88
2019-02-16T07:34:33.831Z,16.88
2019-02-16T07:35:33.785Z,16.88
2019-02-16T07:36:33.763Z,16.88
2019-02-16T07:37:33.732Z,16.88
2019-02-16T07:38:33.706Z,16.88
2019-02-16T07:39:33.681Z,16.88
2019-02-16T07:40:33.663Z,16.88
2019-02-16T07:41:33.623Z,16.88
2019-02-16T07:42:33.597Z,16.88
2019-02-16T07:43:33.572Z,16.88
2019-02-16T07:44:33.545Z,16.88
2019-02-16T07:45:33.516Z,16.88
2019-02-16T07:46:33.491Z,16.88
2019-02-16T07:47:33.464Z,16.88
2019-02-16T07:48:33.434Z,16.88
2019-02-16T07:49:33.411Z,22.50
2019-02-16T07:50:33.383Z,22.50
2019-02-16T07:51:33.353Z,22.50
2019-02-16T07:52:33.365Z,22.50
2019-02-16T07:53:33.311Z,22.50
2019-02-16T07:54:33.276Z,28.13
2019-02-16T07:55:34.360Z,28.13
2019-02-16T07:56:33.222Z,28.13
2019-02-16T07:57:33.195Z,28.13
2019-02-16T07:58:33.170Z,28.13
2019-02-16T07:59:33.140Z,28.13
2019-02-16T08:00:33.114Z,28.13
2019-02-16T08:01:33.095Z,28.13
2019-02-16T08:02:33.061Z,28.13
2019-02-16T08:03:33.042Z,28.13
2019-02-16T08:04:33.021Z,28.13
2019-02-16T08:05:32.981Z,28.13
2019-02-16T08:06:32.956Z,28.13
2019-02-16T08:07:32.927Z,28.13
2019-02-16T08:08:32.908Z,28.13
2019-02-16T08:09:32.875Z,28.13
2019-02-16T08:10:32.849Z,28.13
2019-02-16T08:11:32.823Z,33.75
2019-02-16T08:12:32.795Z,33.75
2019-02-16T08:13:32.791Z,33.75
2019-02-16T08:14:32.748Z,33.75
2019-02-16T08:15:32.716Z,33.75
2019-02-16T08:16:32.690Z,33.75
2019-02-16T08:17:32.665Z,33.75
2019-02-16T08:18:32.638Z,33.75
2019-02-16T08:19:32.613Z,33.75
2019-02-16T08:20:32.584Z,33.75
2019-02-16T08:21:32.560Z,33.75
2019-02-16T08:22:32.532Z,33.75
2019-02-16T08:23:40.175Z,33.75
2019-02-16T08:24:32.479Z,33.75
2019-02-16T08:25:32.454Z,33.75
2019-02-16T08:26:32.428Z,33.75
2019-02-16T08:27:32.414Z,33.75
2019-02-16T08:28:32.374Z,33.75
2019-02-16T08:29:32.351Z,33.75
2019-02-16T08:30:32.324Z,33.75
2019-02-16T08:31:32.297Z,33.75
2019-02-16T08:32:32.273Z,33.75
2019-02-16T08:33:32.245Z,33.75
2019-02-16T08:34:32.229Z,33.75
2019-02-16T08:35:32.192Z,33.75
2019-02-16T08:36:32.167Z,28.13
2019-02-16T08:37:32.143Z,28.13
2019-02-16T08:38:32.128Z,28.13
2019-02-16T08:39:32.177Z,28.13
2019-02-16T08:40:32.065Z,28.13
2019-02-16T08:41:32.039Z,28.13
2019-02-16T08:42:32.012Z,28.13
2019-02-16T08:43:31.986Z,28.13
2019-02-16T08:44:31.962Z,28.13
2019-02-16T08:45:31.939Z,28.13
2019-02-16T08:46:31.911Z,28.13
2019-02-16T08:47:31.885Z,28.13
2019-02-16T08:48:31.866Z,33.75
2019-02-16T08:49:31.836Z,33.75
2019-02-16T08:50:31.809Z,33.75
2019-02-16T08:51:31.781Z,33.75
2019-02-16T08:52:31.760Z,33.75
2019-02-16T08:53:31.730Z,33.75
2019-02-16T08:54:31.719Z,33.75
2019-02-16T08:55:31.680Z,33.75
2019-02-16T08:56:31.655Z,33.75
2019-02-16T08:57:31.631Z,33.75
2019-02-16T08:58:31.608Z,33.75
2019-02-16T08:59:31.602Z,33.75
2019-02-16T09:00:31.555Z,33.75
2019-02-16T09:01:31.540Z,33.75
2019-02-16T09:02:31.504Z,33.75
2019-02-16T09:03:31.478Z,33.75
2019-02-16T09:04:31.455Z,33.75
2019-02-16T09:05:31.429Z,33.75
2019-02-16T09:06:31.472Z,33.75
2019-02-16T09:07:31.396Z,33.75
2019-02-16T09:08:31.353Z,33.75
2019-02-16T09:09:31.330Z,33.75
2019-02-16T09:10:31.312Z,33.75
2019-02-16T09:11:31.276Z,33.75
2019-02-16T09:12:31.336Z,33.75
2019-02-16T09:13:31.226Z,33.75
2019-02-16T09:14:31.202Z,33.75
2019-02-16T09:15:31.179Z,33.75
2019-02-16T09:16:31.152Z,33.75
2019-02-16T09:17:31.127Z,33.75
2019-02-16T09:18:31.104Z,39.38
2019-02-16T09:19:31.076Z,39.38
2019-02-16T09:20:31.050Z,39.38
2019-02-16T09:21:31.035Z,39.38
2019-02-16T09:22:31.001Z,39.38
2019-02-16T09:23:30.978Z,39.38
2019-02-16T09:24:30.953Z,39.38
2019-02-16T09:25:30.934Z,39.38
2019-02-16T09:26:30.904Z,39.38
2019-02-16T09:27:30.877Z,39.38
2019-02-16T09:28:30.877Z,39.38
2019-02-16T09:29:30.830Z,39.38
2019-02-16T09:30:30.803Z,39.38
2019-02-16T09:31:30.785Z,39.38
2019-02-16T09:32:30.754Z,39.38
2019-02-16T09:33:30.744Z,39.38
2019-02-16T09:34:30.704Z,39.38
2019-02-16T09:35:30.690Z,45.00
2019-02-16T09:36:30.660Z,45.00
2019-02-16T09:37:30.631Z,45.00
2019-02-16T09:38:30.609Z,45.00
2019-02-16T09:39:30.586Z,45.00
2019-02-16T09:40:30.558Z,45.00
2019-02-16T09:41:30.534Z,45.00
2019-02-16T09:42:30.510Z,45.00
2019-02-16T09:43:30.487Z,45.00
2019-02-16T09:44:30.512Z,45.00
2019-02-16T09:45:30.439Z,50.63
2019-02-16T09:46:30.416Z,50.63
2019-02-16T09:47:30.446Z,50.63
2019-02-16T09:48:30.363Z,50.63
2019-02-16T09:49:30.344Z,50.63
2019-02-16T09:50:30.316Z,50.63
2019-02-16T09:51:30.295Z,50.63
2019-02-16T09:52:30.270Z,50.63
2019-02-16T09:53:30.247Z,56.25
2019-02-16T09:54:30.230Z,56.25
2019-02-16T09:55:30.196Z,56.25
2019-02-16T09:56:30.267Z,56.25
2019-02-16T09:57:30.149Z,56.25
2019-02-16T09:58:30.131Z,61.88
2019-02-16T09:59:30.103Z,61.88
2019-02-16T10:00:30.077Z,61.88
2019-02-16T10:01:30.116Z,61.88
2019-02-16T10:02:30.033Z,61.88
2019-02-16T10:03:30.009Z,67.50
2019-02-16T10:04:29.983Z,67.50
2019-02-16T10:05:29.960Z,67.50
2019-02-16T10:06:30.012Z,67.50
2019-02-16T10:07:30.543Z,67.50
2019-02-16T10:08:29.914Z,73.13
2019-02-16T10:09:29.865Z,73.13
2019-02-16T10:10:29.839Z,67.50
2019-02-16T10:11:29.816Z,73.13
2019-02-16T10:12:29.793Z,73.13
2019-02-16T10:13:29.770Z,73.13
2019-02-16T10:14:29.778Z,78.75
2019-02-16T10:15:29.759Z,78.75
2019-02-16T10:16:29.699Z,78.75
2019-02-16T10:17:29.677Z,78.75
2019-02-16T10:18:29.665Z,78.75
2019-02-16T10:19:29.629Z,78.75
2019-02-16T10:20:29.621Z,78.75
2019-02-16T10:21:29.778Z,84.38
2019-02-16T10:22:29.562Z,84.38
2019-02-16T10:23:29.539Z,84.38
2019-02-16T10:24:29.512Z,84.38
2019-02-16T10:25:29.491Z,84.38
2019-02-16T10:26:29.470Z,84.38
2019-02-16T10:27:29.442Z,90.00
2019-02-16T10:28:29.423Z,90.00
2019-02-16T10:29:29.398Z,90.00
2019-02-16T10:30:29.373Z,90.00
2019-02-16T10:31:29.351Z,84.38
2019-02-16T10:32:29.327Z,84.38
2019-02-16T10:33:29.304Z,78.75
2019-02-16T10:34:29.352Z,78.75
2019-02-16T10:35:29.255Z,78.75
2019-02-16T10:36:29.454Z,78.75
2019-02-16T10:37:29.211Z,78.75
2019-02-16T10:38:29.251Z,84.38
2019-02-16T10:39:29.164Z,84.38
2019-02-16T10:40:29.141Z,90.00
2019-02-16T10:41:29.124Z,90.00
2019-02-16T10:42:29.168Z,90.00
2019-02-16T10:43:29.082Z,90.00
2019-02-16T10:44:29.111Z,90.00
2019-02-16T10:45:29.030Z,90.00
2019-02-16T10:46:29.004Z,95.63
2019-02-16T10:47:28.994Z,95.63
2019-02-16T10:48:28.964Z,95.63
2019-02-16T10:49:28.936Z,101.25
2019-02-16T10:50:28.927Z,101.25
2019-02-16T10:51:28.893Z,101.25
2019-02-16T10:52:28.877Z,101.25
2019-02-16T10:53:28.858Z,106.88
2019-02-16T10:54:29.738Z,106.88
2019-02-16T10:55:28.872Z,106.88
2019-02-16T10:56:28.779Z,112.50
2019-02-16T10:57:28.760Z,112.50
2019-02-16T10:58:28.735Z,112.50
2019-02-16T10:59:28.712Z,112.50
2019-02-16T11:00:28.738Z,118.13
2019-02-16T11:01:28.672Z,118.13
2019-02-16T11:02:28.739Z,118.13
2019-02-16T11:03:28.627Z,123.75
2019-02-16T11:04:37.691Z,129.38
2019-02-16T11:05:28.579Z,129.38
2019-02-16T11:06:28.564Z,135.00
2019-02-16T11:07:28.535Z,135.00
2019-02-16T11:08:28.513Z,135.00
2019-02-16T11:09:28.493Z,140.63
2019-02-16T11:10:28.497Z,146.25
2019-02-16T11:11:28.462Z,146.25
2019-02-16T11:12:28.427Z,151.88
2019-02-16T11:13:28.408Z,157.50
2019-02-16T11:14:28.393Z,163.13
2019-02-16T11:15:30.336Z,168.75
2019-02-16T11:16:28.338Z,168.75
2019-02-16T11:17:28.316Z,174.38
2019-02-16T11:18:28.293Z,180.00
2019-02-16T11:19:28.272Z,185.63
2019-02-16T11:20:28.258Z,185.63
2019-02-16T11:21:28.227Z,185.63
2019-02-16T11:22:28.208Z,191.25
2019-02-16T11:23:28.185Z,196.88
2019-02-16T11:24:35.852Z,196.88
2019-02-16T11:25:28.146Z,202.50
2019-02-16T11:26:28.123Z,202.50
2019-02-16T11:27:28.101Z,208.13
2019-02-16T11:28:28.080Z,213.75
2019-02-16T11:29:28.058Z,230.63
2019-02-16T11:30:28.036Z,241.88
2019-02-16T11:31:28.039Z,247.50
2019-02-16T11:32:27.995Z,247.50
2019-02-16T11:33:27.977Z,247.50
2019-02-16T11:34:27.954Z,253.13
2019-02-16T11:35:27.945Z,253.13
2019-02-16T11:36:27.910Z,258.75
2019-02-16T11:37:27.888Z,253.13
2019-02-16T11:38:27.869Z,253.13
2019-02-16T11:39:27.850Z,236.25
2019-02-16T11:40:27.833Z,219.38
2019-02-16T11:41:27.806Z,202.50
2019-02-16T11:42:27.786Z,196.88
2019-02-16T11:43:27.764Z,196.88
2019-02-16T11:44:27.746Z,196.88
2019-02-16T11:45:27.740Z,208.13
2019-02-16T11:46:27.704Z,219.38
2019-02-16T11:47:27.688Z,236.25
2019-02-16T11:48:27.764Z,253.13
2019-02-16T11:49:27.646Z,258.75
2019-02-16T11:50:27.639Z,270.00
2019-02-16T11:51:27.603Z,275.63
2019-02-16T11:52:27.591Z,286.88
2019-02-16T11:53:27.561Z,292.50
2019-02-16T11:54:27.550Z,292.50
2019-02-16T11:55:27.523Z,281.25
2019-02-16T11:56:27.499Z,281.25
2019-02-16T11:57:27.479Z,275.63
2019-02-16T11:58:27.463Z,281.25
2019-02-16T11:59:27.466Z,281.25
2019-02-16T12:00:27.464Z,281.25
2019-02-16T12:01:27.456Z,275.63
2019-02-16T12:02:27.380Z,275.63
2019-02-16T12:03:27.358Z,281.25
2019-02-16T12:04:27.344Z,275.63
2019-02-16T12:05:27.320Z,275.63
2019-02-16T12:06:27.302Z,270.00
2019-02-16T12:07:27.281Z,264.38
2019-02-16T12:08:27.258Z,258.75
2019-02-16T12:09:27.295Z,253.13
2019-02-16T12:10:27.244Z,247.50
2019-02-16T12:11:27.196Z,241.88
2019-02-16T12:12:27.177Z,241.88
2019-02-16T12:13:27.157Z,236.25
2019-02-16T12:14:27.137Z,230.63
2019-02-16T12:15:27.117Z,230.63
2019-02-16T12:16:27.101Z,225.00
2019-02-16T12:17:27.079Z,225.00
2019-02-16T12:18:27.059Z,225.00
2019-02-16T12:19:27.037Z,225.00
2019-02-16T12:20:33.317Z,230.63
2019-02-16T12:21:27.004Z,230.63
2019-02-16T12:22:26.980Z,225.00
2019-02-16T12:23:26.978Z,225.00
2019-02-16T12:24:26.968Z,219.38
2019-02-16T12:25:26.921Z,219.38
2019-02-16T12:26:26.902Z,213.75
2019-02-16T12:27:26.882Z,219.38
2019-02-16T12:28:26.886Z,219.38
2019-02-16T12:29:26.885Z,225.00
2019-02-16T12:30:26.979Z,225.00
2019-02-16T12:31:26.804Z,225.00
2019-02-16T12:32:26.785Z,230.63
2019-02-16T12:33:26.771Z,230.63
2019-02-16T12:34:26.747Z,225.00
2019-02-16T12:35:26.736Z,219.38
2019-02-16T12:36:26.776Z,213.75
2019-02-16T12:37:26.710Z,213.75
2019-02-16T12:38:26.671Z,213.75
2019-02-16T12:39:26.713Z,202.50
2019-02-16T12:40:26.628Z,191.25
2019-02-16T12:41:26.609Z,180.00
2019-02-16T12:42:26.592Z,168.75
2019-02-16T12:43:26.573Z,163.13
2019-02-16T12:44:26.552Z,157.50
2019-02-16T12:45:26.532Z,151.88
2019-02-16T12:46:26.517Z,151.88
2019-02-16T12:47:26.499Z,151.88
2019-02-16T12:48:26.476Z,151.88
2019-02-16T12:49:26.455Z,157.50
2019-02-16T12:50:26.439Z,163.13
2019-02-16T12:51:26.420Z,174.38
2019-02-16T12:52:26.397Z,180.00
2019-02-16T12:53:26.378Z,185.63
2019-02-16T12:54:26.364Z,191.25
2019-02-16T12:55:26.340Z,191.25
2019-02-16T12:56:26.325Z,191.25
2019-02-16T12:57:26.300Z,196.88
2019-02-16T12:58:26.281Z,202.50
2019-02-16T12:59:26.266Z,202.50
2019-02-16T13:00:26.256Z,202.50
2019-02-16T13:01:26.221Z,213.75
2019-02-16T13:02:26.204Z,219.38